sensor_id;sensor_type;location;lat;lon;timestamp;P1;durP1;ratioP1;P2;durP2;ratioP2
8102;SDS011;4094;49.948;11.574;2022-12-07T00:00:05;12.60;;;11.90;;
8102;SDS011;4094;49.948;11.574;2022-12-07T00:02:35;12.20;;;11.40;;
8102;SDS011;4094;49.948;11.574;2022-12-07T00:05:05;11.97;;;11.27;;
8102;SDS011;4094;49.948;11.574;2022-12-07T00:07:34;11.70;;;11.00;;
8102;SDS011;4094;49.948;11.574;2022-12-07T00:10:06;11.50;;;10.80;;
8102;SDS011;4094;49.948;11.574;2022-12-07T00:12:36;10.60;;;10.00;;
8102;SDS011;4094;49.948;11.574;2022-12-07T00:15:05;11.20;;;10.50;;
8102;SDS011;4094;49.948;11.574;2022-12-07T00:17:35;10.70;;;10.10;;
8102;SDS011;4094;49.948;11.574;2022-12-07T00:20:05;10.63;;;10.03;;
8102;SDS011;4094;49.948;11.574;2022-12-07T00:22:35;10.87;;;10.27;;
8102;SDS011;4094;49.948;11.574;2022-12-07T00:25:05;10.47;;;9.87;;
8102;SDS011;4094;49.948;11.574;2022-12-07T00:27:34;10.70;;;10.10;;
8102;SDS011;4094;49.948;11.574;2022-12-07T00:30:04;10.80;;;10.20;;
8102;SDS011;4094;49.948;11.574;2022-12-07T00:32:34;11.53;;;10.87;;
8102;SDS011;4094;49.948;11.574;2022-12-07T00:35:04;10.80;;;10.10;;
8102;SDS011;4094;49.948;11.574;2022-12-07T00:37:33;10.80;;;10.20;;
8102;SDS011;4094;49.948;11.574;2022-12-07T00:40:04;11.40;;;10.70;;
8102;SDS011;4094;49.948;11.574;2022-12-07T00:42:34;11.07;;;10.37;;
8102;SDS011;4094;49.948;11.574;2022-12-07T00:45:03;11.20;;;10.50;;
8102;SDS011;4094;49.948;11.574;2022-12-07T00:47:33;12.67;;;11.73;;
8102;SDS011;4094;49.948;11.574;2022-12-07T00:50:02;11.33;;;10.63;;
8102;SDS011;4094;49.948;11.574;2022-12-07T00:52:31;10.87;;;10.27;;
8102;SDS011;4094;49.948;11.574;2022-12-07T00:55:00;10.50;;;9.90;;
8102;SDS011;4094;49.948;11.574;2022-12-07T00:57:31;10.83;;;10.23;;
8102;SDS011;4094;49.948;11.574;2022-12-07T01:00:00;10.77;;;10.07;;
8102;SDS011;4094;49.948;11.574;2022-12-07T01:02:29;10.83;;;10.23;;
8102;SDS011;4094;49.948;11.574;2022-12-07T01:04:59;10.50;;;9.90;;
8102;SDS011;4094;49.948;11.574;2022-12-07T01:07:27;10.53;;;10.00;;
8102;SDS011;4094;49.948;11.574;2022-12-07T01:09:56;10.63;;;10.10;;
8102;SDS011;4094;49.948;11.574;2022-12-07T01:12:26;10.90;;;10.30;;
8102;SDS011;4094;49.948;11.574;2022-12-07T01:14:56;10.73;;;10.13;;
8102;SDS011;4094;49.948;11.574;2022-12-07T01:17:25;11.23;;;10.53;;
8102;SDS011;4094;49.948;11.574;2022-12-07T01:19:54;10.90;;;10.30;;
8102;SDS011;4094;49.948;11.574;2022-12-07T01:22:23;10.90;;;10.20;;
8102;SDS011;4094;49.948;11.574;2022-12-07T01:24:52;11.17;;;10.53;;
8102;SDS011;4094;49.948;11.574;2022-12-07T01:27:21;11.17;;;10.47;;
8102;SDS011;4094;49.948;11.574;2022-12-07T01:29:50;10.83;;;10.13;;
8102;SDS011;4094;49.948;11.574;2022-12-07T01:32:21;11.17;;;10.57;;
8102;SDS011;4094;49.948;11.574;2022-12-07T01:34:50;10.63;;;10.03;;
8102;SDS011;4094;49.948;11.574;2022-12-07T01:37:19;10.83;;;10.13;;
8102;SDS011;4094;49.948;11.574;2022-12-07T01:39:48;11.03;;;10.40;;
8102;SDS011;4094;49.948;11.574;2022-12-07T01:42:17;11.23;;;10.43;;
8102;SDS011;4094;49.948;11.574;2022-12-07T01:47:54;11.57;;;10.90;;
8102;SDS011;4094;49.948;11.574;2022-12-07T01:50:26;11.23;;;10.53;;
8102;SDS011;4094;49.948;11.574;2022-12-07T01:52:58;10.90;;;10.30;;
8102;SDS011;4094;49.948;11.574;2022-12-07T01:55:31;11.53;;;10.83;;
8102;SDS011;4094;49.948;11.574;2022-12-07T01:58:00;11.40;;;10.80;;
8102;SDS011;4094;49.948;11.574;2022-12-07T02:00:29;10.50;;;9.90;;
8102;SDS011;4094;49.948;11.574;2022-12-07T02:03:02;12.30;;;11.50;;
8102;SDS011;4094;49.948;11.574;2022-12-07T02:05:36;11.67;;;10.87;;
8102;SDS011;4094;49.948;11.574;2022-12-07T02:08:09;12.10;;;11.40;;
8102;SDS011;4094;49.948;11.574;2022-12-07T02:10:40;11.43;;;10.77;;
8102;SDS011;4094;49.948;11.574;2022-12-07T02:13:10;11.93;;;11.23;;
8102;SDS011;4094;49.948;11.574;2022-12-07T02:15:45;12.47;;;11.67;;
8102;SDS011;4094;49.948;11.574;2022-12-07T02:18:31;12.53;;;11.70;;
8102;SDS011;4094;49.948;11.574;2022-12-07T02:21:11;13.40;;;12.40;;
8102;SDS011;4094;49.948;11.574;2022-12-07T02:26:49;15.70;;;14.50;;
8102;SDS011;4094;49.948;11.574;2022-12-07T02:29:46;15.57;;;14.47;;
8102;SDS011;4094;49.948;11.574;2022-12-07T02:32:23;17.67;;;16.17;;
8102;SDS011;4094;49.948;11.574;2022-12-07T02:34:56;17.80;;;16.30;;
8102;SDS011;4094;49.948;11.574;2022-12-07T02:37:34;17.77;;;16.27;;
8102;SDS011;4094;49.948;11.574;2022-12-07T02:40:08;17.40;;;16.10;;
8102;SDS011;4094;49.948;11.574;2022-12-07T02:42:42;16.97;;;15.67;;
8102;SDS011;4094;49.948;11.574;2022-12-07T02:45:18;16.60;;;15.30;;
8102;SDS011;4094;49.948;11.574;2022-12-07T02:47:50;16.57;;;15.30;;
8102;SDS011;4094;49.948;11.574;2022-12-07T02:50:21;16.10;;;14.90;;
8102;SDS011;4094;49.948;11.574;2022-12-07T02:52:50;15.43;;;14.33;;
8102;SDS011;4094;49.948;11.574;2022-12-07T02:55:20;15.00;;;13.90;;
8102;SDS011;4094;49.948;11.574;2022-12-07T02:57:55;14.73;;;13.70;;
8102;SDS011;4094;49.948;11.574;2022-12-07T03:00:37;14.83;;;13.83;;
8102;SDS011;4094;49.948;11.574;2022-12-07T03:03:14;14.97;;;13.77;;
8102;SDS011;4094;49.948;11.574;2022-12-07T03:08:39;14.53;;;13.43;;
8102;SDS011;4094;49.948;11.574;2022-12-07T03:11:16;14.57;;;13.57;;
8102;SDS011;4094;49.948;11.574;2022-12-07T03:13:54;14.13;;;13.13;;
8102;SDS011;4094;49.948;11.574;2022-12-07T03:16:33;14.83;;;13.73;;
8102;SDS011;4094;49.948;11.574;2022-12-07T03:19:06;14.43;;;13.43;;
8102;SDS011;4094;49.948;11.574;2022-12-07T03:21:39;13.73;;;12.83;;
8102;SDS011;4094;49.948;11.574;2022-12-07T03:24:12;13.60;;;12.60;;
8102;SDS011;4094;49.948;11.574;2022-12-07T03:26:46;14.40;;;13.40;;
8102;SDS011;4094;49.948;11.574;2022-12-07T03:29:18;14.17;;;13.17;;
8102;SDS011;4094;49.948;11.574;2022-12-07T03:31:51;13.73;;;12.83;;
8102;SDS011;4094;49.948;11.574;2022-12-07T03:34:27;13.87;;;12.97;;
8102;SDS011;4094;49.948;11.574;2022-12-07T03:37:00;12.53;;;11.63;;
8102;SDS011;4094;49.948;11.574;2022-12-07T03:39:33;14.47;;;13.47;;
8102;SDS011;4094;49.948;11.574;2022-12-07T03:42:05;15.07;;;14.00;;
8102;SDS011;4094;49.948;11.574;2022-12-07T03:44:39;13.50;;;12.60;;
8102;SDS011;4094;49.948;11.574;2022-12-07T03:47:12;13.67;;;12.67;;
8102;SDS011;4094;49.948;11.574;2022-12-07T03:49:48;13.80;;;12.90;;
8102;SDS011;4094;49.948;11.574;2022-12-07T03:52:22;13.23;;;12.30;;
8102;SDS011;4094;49.948;11.574;2022-12-07T03:54:55;13.37;;;12.47;;
8102;SDS011;4094;49.948;11.574;2022-12-07T03:57:28;13.87;;;12.87;;
8102;SDS011;4094;49.948;11.574;2022-12-07T03:59:58;14.47;;;13.47;;
8102;SDS011;4094;49.948;11.574;2022-12-07T04:02:39;14.03;;;13.13;;
8102;SDS011;4094;49.948;11.574;2022-12-07T04:05:09;14.30;;;13.30;;
8102;SDS011;4094;49.948;11.574;2022-12-07T04:07:39;14.10;;;13.20;;
8102;SDS011;4094;49.948;11.574;2022-12-07T04:10:10;15.30;;;14.20;;
8102;SDS011;4094;49.948;11.574;2022-12-07T04:12:39;14.97;;;13.97;;
8102;SDS011;4094;49.948;11.574;2022-12-07T04:15:08;15.20;;;14.20;;
8102;SDS011;4094;49.948;11.574;2022-12-07T04:17:37;15.13;;;14.10;;
8102;SDS011;4094;49.948;11.574;2022-12-07T04:20:09;15.87;;;14.70;;
8102;SDS011;4094;49.948;11.574;2022-12-07T04:22:39;15.47;;;14.37;;
8102;SDS011;4094;49.948;11.574;2022-12-07T04:25:08;15.40;;;14.20;;
8102;SDS011;4094;49.948;11.574;2022-12-07T04:27:37;16.03;;;14.83;;
8102;SDS011;4094;49.948;11.574;2022-12-07T04:30:07;15.83;;;14.70;;
8102;SDS011;4094;49.948;11.574;2022-12-07T04:32:37;15.60;;;14.47;;
8102;SDS011;4094;49.948;11.574;2022-12-07T04:35:08;15.43;;;14.33;;
8102;SDS011;4094;49.948;11.574;2022-12-07T04:37:38;16.00;;;14.70;;
8102;SDS011;4094;49.948;11.574;2022-12-07T04:40:09;15.87;;;14.77;;
8102;SDS011;4094;49.948;11.574;2022-12-07T04:42:39;15.67;;;14.57;;
8102;SDS011;4094;49.948;11.574;2022-12-07T04:45:09;16.40;;;15.20;;
8102;SDS011;4094;49.948;11.574;2022-12-07T04:47:38;15.67;;;14.53;;
8102;SDS011;4094;49.948;11.574;2022-12-07T04:50:10;15.30;;;14.20;;
8102;SDS011;4094;49.948;11.574;2022-12-07T04:52:39;16.10;;;14.90;;
8102;SDS011;4094;49.948;11.574;2022-12-07T04:55:08;16.23;;;15.07;;
8102;SDS011;4094;49.948;11.574;2022-12-07T04:57:37;16.97;;;15.77;;
8102;SDS011;4094;49.948;11.574;2022-12-07T05:00:07;16.37;;;15.17;;
8102;SDS011;4094;49.948;11.574;2022-12-07T05:02:36;16.30;;;15.10;;
8102;SDS011;4094;49.948;11.574;2022-12-07T05:05:06;15.77;;;14.67;;
8102;SDS011;4094;49.948;11.574;2022-12-07T05:07:37;17.00;;;15.60;;
8102;SDS011;4094;49.948;11.574;2022-12-07T05:10:06;16.43;;;15.23;;
8102;SDS011;4094;49.948;11.574;2022-12-07T05:12:36;16.53;;;15.27;;
8102;SDS011;4094;49.948;11.574;2022-12-07T05:15:05;16.43;;;15.23;;
8102;SDS011;4094;49.948;11.574;2022-12-07T05:17:34;16.37;;;15.10;;
8102;SDS011;4094;49.948;11.574;2022-12-07T05:20:04;17.43;;;16.03;;
8102;SDS011;4094;49.948;11.574;2022-12-07T05:22:36;16.60;;;15.37;;
8102;SDS011;4094;49.948;11.574;2022-12-07T05:25:05;17.07;;;15.67;;
8102;SDS011;4094;49.948;11.574;2022-12-07T05:27:36;16.27;;;15.07;;
8102;SDS011;4094;49.948;11.574;2022-12-07T05:30:06;16.60;;;15.30;;
8102;SDS011;4094;49.948;11.574;2022-12-07T05:32:36;17.53;;;16.03;;
8102;SDS011;4094;49.948;11.574;2022-12-07T05:35:05;16.37;;;15.17;;
8102;SDS011;4094;49.948;11.574;2022-12-07T05:37:37;16.80;;;15.60;;
8102;SDS011;4094;49.948;11.574;2022-12-07T05:40:07;17.13;;;15.73;;
8102;SDS011;4094;49.948;11.574;2022-12-07T05:42:37;16.70;;;15.43;;
8102;SDS011;4094;49.948;11.574;2022-12-07T05:45:06;16.80;;;15.40;;
8102;SDS011;4094;49.948;11.574;2022-12-07T05:47:37;16.83;;;15.63;;
8102;SDS011;4094;49.948;11.574;2022-12-07T05:50:07;17.10;;;15.80;;
8102;SDS011;4094;49.948;11.574;2022-12-07T05:52:37;17.00;;;15.60;;
8102;SDS011;4094;49.948;11.574;2022-12-07T05:55:07;17.27;;;15.77;;
8102;SDS011;4094;49.948;11.574;2022-12-07T05:57:36;16.63;;;15.43;;
8102;SDS011;4094;49.948;11.574;2022-12-07T06:00:06;16.80;;;15.50;;
8102;SDS011;4094;49.948;11.574;2022-12-07T06:02:38;16.97;;;15.77;;
8102;SDS011;4094;49.948;11.574;2022-12-07T06:05:07;16.27;;;15.10;;
8102;SDS011;4094;49.948;11.574;2022-12-07T06:07:38;16.27;;;15.07;;
8102;SDS011;4094;49.948;11.574;2022-12-07T06:10:08;16.90;;;15.63;;
8102;SDS011;4094;49.948;11.574;2022-12-07T06:12:37;16.93;;;15.73;;
8102;SDS011;4094;49.948;11.574;2022-12-07T06:15:06;17.13;;;15.87;;
8102;SDS011;4094;49.948;11.574;2022-12-07T06:17:37;16.97;;;15.67;;
8102;SDS011;4094;49.948;11.574;2022-12-07T06:20:07;17.93;;;16.53;;
8102;SDS011;4094;49.948;11.574;2022-12-07T06:22:38;17.13;;;15.83;;
8102;SDS011;4094;49.948;11.574;2022-12-07T06:25:07;16.70;;;15.40;;
8102;SDS011;4094;49.948;11.574;2022-12-07T06:27:37;17.13;;;15.83;;
8102;SDS011;4094;49.948;11.574;2022-12-07T06:30:06;15.97;;;14.77;;
8102;SDS011;4094;49.948;11.574;2022-12-07T06:32:36;17.67;;;16.27;;
8102;SDS011;4094;49.948;11.574;2022-12-07T06:35:06;17.93;;;16.60;;
8102;SDS011;4094;49.948;11.574;2022-12-07T06:37:36;17.00;;;15.70;;
8102;SDS011;4094;49.948;11.574;2022-12-07T06:40:07;17.93;;;16.43;;
8102;SDS011;4094;49.948;11.574;2022-12-07T06:42:38;16.63;;;15.33;;
8102;SDS011;4094;49.948;11.574;2022-12-07T06:45:07;16.53;;;15.27;;
8102;SDS011;4094;49.948;11.574;2022-12-07T06:47:38;16.83;;;15.53;;
8102;SDS011;4094;49.948;11.574;2022-12-07T06:50:09;16.60;;;15.40;;
8102;SDS011;4094;49.948;11.574;2022-12-07T06:52:39;16.83;;;15.60;;
8102;SDS011;4094;49.948;11.574;2022-12-07T06:55:08;16.67;;;15.37;;
8102;SDS011;4094;49.948;11.574;2022-12-07T06:57:39;17.07;;;15.77;;
8102;SDS011;4094;49.948;11.574;2022-12-07T07:00:08;16.00;;;14.80;;
8102;SDS011;4094;49.948;11.574;2022-12-07T07:02:46;16.67;;;15.27;;
8102;SDS011;4094;49.948;11.574;2022-12-07T07:05:15;16.33;;;15.10;;
8102;SDS011;4094;49.948;11.574;2022-12-07T07:07:46;16.67;;;15.37;;
8102;SDS011;4094;49.948;11.574;2022-12-07T07:10:35;17.20;;;15.80;;
8102;SDS011;4094;49.948;11.574;2022-12-07T07:13:05;16.00;;;14.83;;
8102;SDS011;4094;49.948;11.574;2022-12-07T07:15:34;17.23;;;15.90;;
8102;SDS011;4094;49.948;11.574;2022-12-07T07:18:05;16.30;;;15.07;;
8102;SDS011;4094;49.948;11.574;2022-12-07T07:20:34;17.13;;;15.83;;
8102;SDS011;4094;49.948;11.574;2022-12-07T07:23:05;16.83;;;15.50;;
8102;SDS011;4094;49.948;11.574;2022-12-07T07:25:34;17.00;;;15.73;;
8102;SDS011;4094;49.948;11.574;2022-12-07T07:28:04;16.47;;;15.23;;
8102;SDS011;4094;49.948;11.574;2022-12-07T07:30:33;16.77;;;15.37;;
8102;SDS011;4094;49.948;11.574;2022-12-07T07:33:02;17.07;;;15.70;;
8102;SDS011;4094;49.948;11.574;2022-12-07T07:35:33;17.30;;;16.00;;
8102;SDS011;4094;49.948;11.574;2022-12-07T07:38:02;18.57;;;17.03;;
8102;SDS011;4094;49.948;11.574;2022-12-07T07:40:33;18.07;;;16.67;;
8102;SDS011;4094;49.948;11.574;2022-12-07T07:43:02;17.70;;;16.30;;
8102;SDS011;4094;49.948;11.574;2022-12-07T07:45:32;17.60;;;16.10;;
8102;SDS011;4094;49.948;11.574;2022-12-07T07:48:01;17.23;;;15.83;;
8102;SDS011;4094;49.948;11.574;2022-12-07T07:50:30;18.20;;;16.70;;
8102;SDS011;4094;49.948;11.574;2022-12-07T07:52:59;17.90;;;16.50;;
8102;SDS011;4094;49.948;11.574;2022-12-07T07:55:29;17.93;;;16.53;;
8102;SDS011;4094;49.948;11.574;2022-12-07T07:57:59;18.63;;;17.03;;
8102;SDS011;4094;49.948;11.574;2022-12-07T08:00:28;18.47;;;16.97;;
8102;SDS011;4094;49.948;11.574;2022-12-07T08:02:57;17.90;;;16.50;;
8102;SDS011;4094;49.948;11.574;2022-12-07T08:05:26;18.60;;;17.10;;
8102;SDS011;4094;49.948;11.574;2022-12-07T08:07:56;19.37;;;17.73;;
8102;SDS011;4094;49.948;11.574;2022-12-07T08:10:26;18.30;;;16.80;;
8102;SDS011;4094;49.948;11.574;2022-12-07T08:12:56;19.47;;;17.70;;
8102;SDS011;4094;49.948;11.574;2022-12-07T08:15:42;18.23;;;16.83;;
8102;SDS011;4094;49.948;11.574;2022-12-07T08:18:12;18.97;;;17.37;;
8102;SDS011;4094;49.948;11.574;2022-12-07T08:20:43;17.50;;;16.10;;
8102;SDS011;4094;49.948;11.574;2022-12-07T08:23:12;18.50;;;17.00;;
8102;SDS011;4094;49.948;11.574;2022-12-07T08:25:41;20.77;;;18.97;;
8102;SDS011;4094;49.948;11.574;2022-12-07T08:28:11;18.03;;;16.63;;
8102;SDS011;4094;49.948;11.574;2022-12-07T08:30:40;18.17;;;16.67;;
8102;SDS011;4094;49.948;11.574;2022-12-07T08:33:10;18.20;;;16.80;;
8102;SDS011;4094;49.948;11.574;2022-12-07T08:35:39;18.93;;;17.40;;
8102;SDS011;4094;49.948;11.574;2022-12-07T08:38:08;18.27;;;16.87;;
8102;SDS011;4094;49.948;11.574;2022-12-07T08:40:37;18.30;;;16.90;;
8102;SDS011;4094;49.948;11.574;2022-12-07T08:43:06;18.07;;;16.53;;
8102;SDS011;4094;49.948;11.574;2022-12-07T08:45:36;19.47;;;17.87;;
8102;SDS011;4094;49.948;11.574;2022-12-07T08:48:09;19.00;;;17.57;;
8102;SDS011;4094;49.948;11.574;2022-12-07T08:50:41;18.80;;;17.20;;
8102;SDS011;4094;49.948;11.574;2022-12-07T08:53:15;19.93;;;18.27;;
8102;SDS011;4094;49.948;11.574;2022-12-07T08:55:45;19.90;;;18.10;;
8102;SDS011;4094;49.948;11.574;2022-12-07T08:58:14;20.37;;;18.70;;
8102;SDS011;4094;49.948;11.574;2022-12-07T09:00:45;18.87;;;17.37;;
8102;SDS011;4094;49.948;11.574;2022-12-07T09:03:14;19.00;;;17.50;;
8102;SDS011;4094;49.948;11.574;2022-12-07T09:05:43;18.73;;;17.33;;
8102;SDS011;4094;49.948;11.574;2022-12-07T09:08:13;18.37;;;16.93;;
8102;SDS011;4094;49.948;11.574;2022-12-07T09:10:42;20.20;;;18.27;;
8102;SDS011;4094;49.948;11.574;2022-12-07T09:13:11;19.47;;;17.97;;
8102;SDS011;4094;49.948;11.574;2022-12-07T09:15:40;20.83;;;19.03;;
8102;SDS011;4094;49.948;11.574;2022-12-07T09:18:11;20.40;;;18.70;;
8102;SDS011;4094;49.948;11.574;2022-12-07T09:20:40;19.40;;;17.77;;
8102;SDS011;4094;49.948;11.574;2022-12-07T09:23:09;19.90;;;18.30;;
8102;SDS011;4094;49.948;11.574;2022-12-07T09:25:38;20.03;;;18.43;;
8102;SDS011;4094;49.948;11.574;2022-12-07T09:28:08;19.83;;;18.17;;
8102;SDS011;4094;49.948;11.574;2022-12-07T09:30:38;20.00;;;18.33;;
8102;SDS011;4094;49.948;11.574;2022-12-07T09:33:34;20.53;;;18.67;;
8102;SDS011;4094;49.948;11.574;2022-12-07T09:36:03;20.50;;;18.53;;
8102;SDS011;4094;49.948;11.574;2022-12-07T09:38:33;18.80;;;17.30;;
8102;SDS011;4094;49.948;11.574;2022-12-07T09:41:04;19.53;;;17.97;;
8102;SDS011;4094;49.948;11.574;2022-12-07T09:43:34;19.60;;;17.90;;
8102;SDS011;4094;49.948;11.574;2022-12-07T09:46:05;21.03;;;19.30;;
8102;SDS011;4094;49.948;11.574;2022-12-07T09:48:36;19.07;;;17.47;;
8102;SDS011;4094;49.948;11.574;2022-12-07T09:51:12;19.83;;;18.17;;
8102;SDS011;4094;49.948;11.574;2022-12-07T09:53:50;19.97;;;18.30;;
8102;SDS011;4094;49.948;11.574;2022-12-07T09:56:21;20.37;;;18.57;;
8102;SDS011;4094;49.948;11.574;2022-12-07T09:58:51;21.00;;;19.13;;
8102;SDS011;4094;49.948;11.574;2022-12-07T10:01:27;19.70;;;18.10;;
8102;SDS011;4094;49.948;11.574;2022-12-07T10:04:00;19.97;;;18.37;;
8102;SDS011;4094;49.948;11.574;2022-12-07T10:06:37;20.20;;;18.37;;
8102;SDS011;4094;49.948;11.574;2022-12-07T10:09:10;20.00;;;18.17;;
8102;SDS011;4094;49.948;11.574;2022-12-07T10:14:30;19.03;;;17.50;;
8102;SDS011;4094;49.948;11.574;2022-12-07T10:17:28;19.20;;;17.70;;
8102;SDS011;4094;49.948;11.574;2022-12-07T10:20:15;18.87;;;17.30;;
8102;SDS011;4094;49.948;11.574;2022-12-07T10:22:58;17.90;;;16.50;;
8102;SDS011;4094;49.948;11.574;2022-12-07T10:25:30;18.87;;;17.27;;
8102;SDS011;4094;49.948;11.574;2022-12-07T10:28:02;18.67;;;17.20;;
8102;SDS011;4094;49.948;11.574;2022-12-07T10:30:54;18.50;;;16.93;;
8102;SDS011;4094;49.948;11.574;2022-12-07T10:33:27;19.07;;;17.47;;
8102;SDS011;4094;49.948;11.574;2022-12-07T10:36:00;17.90;;;16.50;;
8102;SDS011;4094;49.948;11.574;2022-12-07T10:38:44;17.63;;;16.13;;
8102;SDS011;4094;49.948;11.574;2022-12-07T10:41:15;18.23;;;16.73;;
8102;SDS011;4094;49.948;11.574;2022-12-07T10:43:48;18.87;;;17.30;;
8102;SDS011;4094;49.948;11.574;2022-12-07T10:46:26;18.77;;;17.23;;
8102;SDS011;4094;49.948;11.574;2022-12-07T10:49:28;19.23;;;17.43;;
8102;SDS011;4094;49.948;11.574;2022-12-07T10:52:32;19.27;;;17.57;;
8102;SDS011;4094;49.948;11.574;2022-12-07T10:55:23;19.23;;;17.73;;
8102;SDS011;4094;49.948;11.574;2022-12-07T10:58:09;19.17;;;17.67;;
8102;SDS011;4094;49.948;11.574;2022-12-07T11:00:53;19.23;;;17.63;;
8102;SDS011;4094;49.948;11.574;2022-12-07T11:03:31;19.23;;;17.63;;
8102;SDS011;4094;49.948;11.574;2022-12-07T11:06:23;19.77;;;18.17;;
8102;SDS011;4094;49.948;11.574;2022-12-07T11:09:03;18.57;;;17.07;;
8102;SDS011;4094;49.948;11.574;2022-12-07T11:11:46;18.37;;;16.87;;
8102;SDS011;4094;49.948;11.574;2022-12-07T11:14:25;18.00;;;16.60;;
8102;SDS011;4094;49.948;11.574;2022-12-07T11:17:05;18.70;;;17.20;;
8102;SDS011;4094;49.948;11.574;2022-12-07T11:19:45;17.97;;;16.47;;
8102;SDS011;4094;49.948;11.574;2022-12-07T11:22:20;17.70;;;16.30;;
8102;SDS011;4094;49.948;11.574;2022-12-07T11:25:02;17.83;;;16.33;;
8102;SDS011;4094;49.948;11.574;2022-12-07T11:27:57;16.80;;;15.40;;
8102;SDS011;4094;49.948;11.574;2022-12-07T11:30:38;17.27;;;15.93;;
8102;SDS011;4094;49.948;11.574;2022-12-07T11:33:17;17.53;;;16.13;;
8102;SDS011;4094;49.948;11.574;2022-12-07T11:35:55;17.53;;;16.13;;
8102;SDS011;4094;49.948;11.574;2022-12-07T11:38:33;17.13;;;15.83;;
8102;SDS011;4094;49.948;11.574;2022-12-07T11:41:11;17.20;;;15.87;;
8102;SDS011;4094;49.948;11.574;2022-12-07T11:43:46;16.40;;;15.20;;
8102;SDS011;4094;49.948;11.574;2022-12-07T11:46:23;17.00;;;15.60;;
8102;SDS011;4094;49.948;11.574;2022-12-07T11:48:57;16.23;;;15.03;;
8102;SDS011;4094;49.948;11.574;2022-12-07T11:51:32;16.23;;;14.93;;
8102;SDS011;4094;49.948;11.574;2022-12-07T11:54:05;16.63;;;15.33;;
8102;SDS011;4094;49.948;11.574;2022-12-07T11:56:44;15.83;;;14.63;;
8102;SDS011;4094;49.948;11.574;2022-12-07T11:59:17;15.20;;;13.90;;
8102;SDS011;4094;49.948;11.574;2022-12-07T12:01:53;15.30;;;14.10;;
8102;SDS011;4094;49.948;11.574;2022-12-07T12:04:30;15.83;;;14.53;;
8102;SDS011;4094;49.948;11.574;2022-12-07T12:07:10;15.60;;;14.30;;
8102;SDS011;4094;49.948;11.574;2022-12-07T12:10:05;15.20;;;14.10;;
8102;SDS011;4094;49.948;11.574;2022-12-07T12:13:08;16.17;;;14.87;;
8102;SDS011;4094;49.948;11.574;2022-12-07T12:16:15;14.83;;;13.73;;
8102;SDS011;4094;49.948;11.574;2022-12-07T12:19:10;14.57;;;13.47;;
8102;SDS011;4094;49.948;11.574;2022-12-07T12:22:04;14.03;;;13.03;;
8102;SDS011;4094;49.948;11.574;2022-12-07T12:24:40;14.27;;;13.07;;
8102;SDS011;4094;49.948;11.574;2022-12-07T12:27:16;14.07;;;13.07;;
8102;SDS011;4094;49.948;11.574;2022-12-07T12:29:53;14.40;;;13.40;;
8102;SDS011;4094;49.948;11.574;2022-12-07T12:32:29;13.87;;;12.87;;
8102;SDS011;4094;49.948;11.574;2022-12-07T12:35:27;14.30;;;13.20;;
8102;SDS011;4094;49.948;11.574;2022-12-07T12:40:58;13.30;;;12.30;;
8102;SDS011;4094;49.948;11.574;2022-12-07T12:43:44;13.20;;;12.20;;
8102;SDS011;4094;49.948;11.574;2022-12-07T12:46:38;13.73;;;12.80;;
8102;SDS011;4094;49.948;11.574;2022-12-07T12:58:31;13.23;;;12.17;;
8102;SDS011;4094;49.948;11.574;2022-12-07T13:04:21;13.10;;;12.10;;
8102;SDS011;4094;49.948;11.574;2022-12-07T13:06:53;14.03;;;13.03;;
8102;SDS011;4094;49.948;11.574;2022-12-07T13:09:23;14.13;;;12.97;;
8102;SDS011;4094;49.948;11.574;2022-12-07T13:11:56;14.23;;;13.13;;
8102;SDS011;4094;49.948;11.574;2022-12-07T13:20:44;14.03;;;13.03;;
8102;SDS011;4094;49.948;11.574;2022-12-07T13:23:27;13.67;;;12.63;;
8102;SDS011;4094;49.948;11.574;2022-12-07T13:26:04;13.00;;;12.00;;
8102;SDS011;4094;49.948;11.574;2022-12-07T13:28:46;14.53;;;13.43;;
8102;SDS011;4094;49.948;11.574;2022-12-07T13:31:24;14.43;;;13.33;;
8102;SDS011;4094;49.948;11.574;2022-12-07T13:34:00;13.53;;;12.53;;
8102;SDS011;4094;49.948;11.574;2022-12-07T13:36:33;14.37;;;13.23;;
8102;SDS011;4094;49.948;11.574;2022-12-07T13:39:17;14.40;;;13.30;;
8102;SDS011;4094;49.948;11.574;2022-12-07T13:41:50;13.60;;;12.60;;
8102;SDS011;4094;49.948;11.574;2022-12-07T13:44:20;14.60;;;13.40;;
8102;SDS011;4094;49.948;11.574;2022-12-07T13:46:52;14.77;;;13.57;;
8102;SDS011;4094;49.948;11.574;2022-12-07T13:49:27;12.97;;;11.97;;
8102;SDS011;4094;49.948;11.574;2022-12-07T13:52:12;13.00;;;12.10;;
8102;SDS011;4094;49.948;11.574;2022-12-07T13:54:45;13.00;;;12.10;;
8102;SDS011;4094;49.948;11.574;2022-12-07T13:57:16;13.87;;;12.70;;
8102;SDS011;4094;49.948;11.574;2022-12-07T13:59:45;13.17;;;12.27;;
8102;SDS011;4094;49.948;11.574;2022-12-07T14:02:19;12.90;;;12.10;;
8102;SDS011;4094;49.948;11.574;2022-12-07T14:04:49;12.97;;;12.07;;
8102;SDS011;4094;49.948;11.574;2022-12-07T14:07:22;12.87;;;11.97;;
8102;SDS011;4094;49.948;11.574;2022-12-07T14:09:53;12.63;;;11.83;;
8102;SDS011;4094;49.948;11.574;2022-12-07T14:12:25;12.80;;;11.90;;
8102;SDS011;4094;49.948;11.574;2022-12-07T14:14:56;13.90;;;12.80;;
8102;SDS011;4094;49.948;11.574;2022-12-07T14:17:28;13.53;;;12.53;;
8102;SDS011;4094;49.948;11.574;2022-12-07T14:19:58;13.57;;;12.43;;
8102;SDS011;4094;49.948;11.574;2022-12-07T14:22:30;12.53;;;11.53;;
8102;SDS011;4094;49.948;11.574;2022-12-07T14:27:49;12.53;;;11.63;;
8102;SDS011;4094;49.948;11.574;2022-12-07T14:30:23;13.10;;;12.20;;
8102;SDS011;4094;49.948;11.574;2022-12-07T14:32:55;14.03;;;12.93;;
8102;SDS011;4094;49.948;11.574;2022-12-07T14:35:27;12.40;;;11.50;;
8102;SDS011;4094;49.948;11.574;2022-12-07T14:37:58;13.07;;;12.07;;
8102;SDS011;4094;49.948;11.574;2022-12-07T14:40:28;12.50;;;11.60;;
8102;SDS011;4094;49.948;11.574;2022-12-07T14:43:00;12.03;;;11.13;;
8102;SDS011;4094;49.948;11.574;2022-12-07T14:45:30;12.50;;;11.70;;
8102;SDS011;4094;49.948;11.574;2022-12-07T14:47:59;13.30;;;12.20;;
8102;SDS011;4094;49.948;11.574;2022-12-07T14:50:49;12.93;;;11.93;;
8102;SDS011;4094;49.948;11.574;2022-12-07T14:53:41;13.13;;;12.13;;
8102;SDS011;4094;49.948;11.574;2022-12-07T14:56:21;13.63;;;12.67;;
8102;SDS011;4094;49.948;11.574;2022-12-07T14:58:50;13.33;;;12.33;;
8102;SDS011;4094;49.948;11.574;2022-12-07T15:01:20;13.30;;;12.40;;
8102;SDS011;4094;49.948;11.574;2022-12-07T15:03:49;13.90;;;12.67;;
8102;SDS011;4094;49.948;11.574;2022-12-07T15:06:18;13.93;;;12.93;;
8102;SDS011;4094;49.948;11.574;2022-12-07T15:08:49;13.90;;;12.80;;
8102;SDS011;4094;49.948;11.574;2022-12-07T15:11:18;13.80;;;12.70;;
8102;SDS011;4094;49.948;11.574;2022-12-07T15:13:47;13.63;;;12.53;;
8102;SDS011;4094;49.948;11.574;2022-12-07T15:16:34;14.10;;;12.93;;
8102;SDS011;4094;49.948;11.574;2022-12-07T15:19:23;14.07;;;13.00;;
8102;SDS011;4094;49.948;11.574;2022-12-07T15:21:56;14.37;;;13.27;;
8102;SDS011;4094;49.948;11.574;2022-12-07T15:24:28;15.47;;;13.97;;
8102;SDS011;4094;49.948;11.574;2022-12-07T15:26:57;14.37;;;13.27;;
8102;SDS011;4094;49.948;11.574;2022-12-07T15:29:26;13.63;;;12.63;;
8102;SDS011;4094;49.948;11.574;2022-12-07T15:31:56;13.67;;;12.67;;
8102;SDS011;4094;49.948;11.574;2022-12-07T15:34:26;14.53;;;13.47;;
8102;SDS011;4094;49.948;11.574;2022-12-07T15:37:04;15.27;;;14.07;;
8102;SDS011;4094;49.948;11.574;2022-12-07T15:39:35;15.43;;;14.27;;
8102;SDS011;4094;49.948;11.574;2022-12-07T15:42:04;15.10;;;13.90;;
8102;SDS011;4094;49.948;11.574;2022-12-07T15:44:33;14.80;;;13.60;;
8102;SDS011;4094;49.948;11.574;2022-12-07T15:47:20;15.20;;;14.00;;